Time;durP1;ratioP1;P1;durP2;ratioP2;P2;SDS_P1;SDS_P2;PMS_P1;PMS_P2;Temp;Humidity;BMP_temperature;BMP_pressure;BME280_temperature;BME280_humidity;BME280_pressure;Samples;Min_cycle;Max_cycle;Signal;HPM_P1;HPM_P2
2024/02/15 00:02:00;;;;;;;34.97;16.13;;;;;;;;;;5871717;28;20049;-77
2024/02/15 00:04:51;;;;;;;32.58;16.38;;;;;;;;;;5888718;28;20121;-77
2024/02/15 00:07:42;;;;;;;19.90;14.40;;;;;;;;;;5887386;28;20494;-77
2024/02/15 00:10:34;;;;;;;27.20;13.45;;;;;;;;;;5887376;28;20048;-77
2024/02/15 00:13:25;;;;;;;21.33;13.13;;;;;;;;;;5888614;28;20151;-77
2024/02/15 00:16:16;;;;;;;23.25;14.40;;;;;;;;;;5888482;28;20068;-77
2024/02/15 00:19:07;;;;;;;19.70;14.27;;;;;;;;;;5887290;28;20418;-77
2024/02/15 00:21:58;;;;;;;16.85;12.93;;;;;;;;;;5887800;28;20045;-77
2024/02/15 00:24:49;;;;;;;22.83;11.95;;;;;;;;;;5886895;28;20470;-77
2024/02/15 00:27:39;;;;;;;21.25;10.75;;;;;;;;;;5888297;28;20041;-77
2024/02/15 00:30:31;;;;;;;29.20;13.57;;;;;;;;;;5886752;28;20068;-77
2024/02/15 00:33:22;;;;;;;18.70;10.45;;;;;;;;;;5888377;28;20398;-77
2024/02/15 00:36:14;;;;;;;26.08;10.80;;;;;;;;;;5886952;28;20056;-77
2024/02/15 00:39:05;;;;;;;17.42;9.95;;;;;;;;;;5886662;28;20414;-77
2024/02/15 00:41:57;;;;;;;28.95;11.82;;;;;;;;;;5887183;28;20080;-77
2024/02/15 00:44:48;;;;;;;24.20;9.13;;;;;;;;;;5885849;28;20065;-77
2024/02/15 00:47:41;;;;;;;18.27;11.35;;;;;;;;;;5869864;28;20127;-77
2024/02/15 00:50:33;;;;;;;20.45;12.32;;;;;;;;;;5886268;28;20052;-77
2024/02/15 00:53:24;;;;;;;26.17;10.82;;;;;;;;;;5887817;28;20064;-77
2024/02/15 00:56:14;;;;;;;17.77;9.48;;;;;;;;;;5869897;28;20052;-77
2024/02/15 00:59:05;;;;;;;19.67;9.45;;;;;;;;;;5887727;28;20049;-77
2024/02/15 01:01:56;;;;;;;18.90;10.20;;;;;;;;;;5904625;28;20049;-77
2024/02/15 01:04:47;;;;;;;18.35;10.60;;;;;;;;;;5895391;28;20049;-77
2024/02/15 01:07:38;;;;;;;12.38;7.22;;;;;;;;;;5887376;28;20044;-77
2024/02/15 01:10:28;;;;;;;11.73;7.95;;;;;;;;;;5869674;28;20410;-77
2024/02/15 01:13:19;;;;;;;11.68;9.57;;;;;;;;;;5885964;28;20049;-77
2024/02/15 01:16:10;;;;;;;47.60;11.98;;;;;;;;;;5885922;28;20049;-77
2024/02/15 01:19:00;;;;;;;21.35;10.35;;;;;;;;;;5902851;28;20045;-77
2024/02/15 01:21:53;;;;;;;23.35;11.90;;;;;;;;;;5869173;28;20143;-77
2024/02/15 01:24:45;;;;;;;19.23;11.90;;;;;;;;;;5885703;28;20040;-77
2024/02/15 01:27:36;;;;;;;34.70;9.65;;;;;;;;;;5887100;28;20045;-77
2024/02/15 01:30:28;;;;;;;16.20;10.07;;;;;;;;;;5885514;28;20041;-77
2024/02/15 01:33:19;;;;;;;13.70;8.15;;;;;;;;;;5886744;28;20056;-77
2024/02/15 01:36:17;;;;;;;9.80;7.53;;;;;;;;;;5885398;28;20049;-77
2024/02/15 01:39:08;;;;;;;13.13;8.37;;;;;;;;;;5869437;28;20049;-77
2024/02/15 01:41:59;;;;;;;17.05;10.13;;;;;;;;;;5887321;28;20390;-77
2024/02/15 01:44:51;;;;;;;9.48;8.55;;;;;;;;;;5885576;28;20052;-77
2024/02/15 01:47:42;;;;;;;14.88;9.80;;;;;;;;;;5886422;28;20051;-77
2024/02/15 01:50:34;;;;;;;19.10;9.10;;;;;;;;;;5885011;28;20045;-77
2024/02/15 01:53:27;;;;;;;21.05;9.85;;;;;;;;;;5885036;28;20486;-77
2024/02/15 01:56:18;;;;;;;11.38;8.20;;;;;;;;;;5884014;28;20536;-77
2024/02/15 01:59:09;;;;;;;14.85;8.57;;;;;;;;;;5868673;28;20655;-77
2024/02/15 02:02:04;;;;;;;12.98;7.60;;;;;;;;;;5885211;28;20136;-77
2024/02/15 02:04:54;;;;;;;18.48;9.35;;;;;;;;;;5868892;28;20398;-77
2024/02/15 02:07:45;;;;;;;24.80;6.82;;;;;;;;;;5884677;28;20517;-77
2024/02/15 02:10:39;;;;;;;13.57;8.40;;;;;;;;;;5884929;28;20051;-77
2024/02/15 02:13:30;;;;;;;18.77;9.50;;;;;;;;;;5884699;28;20410;-77
2024/02/15 02:16:29;;;;;;;18.17;9.00;;;;;;;;;;5901053;28;20073;-77
2024/02/15 02:19:19;;;;;;;12.65;6.70;;;;;;;;;;5904797;28;20048;-77
2024/02/15 02:22:11;;;;;;;14.02;7.00;;;;;;;;;;5924377;28;20470;-77
2024/02/15 02:25:08;;;;;;;18.98;9.20;;;;;;;;;;5924574;28;20053;-77
2024/02/15 02:28:00;;;;;;;8.40;6.90;;;;;;;;;;5924669;28;20060;-77
2024/02/15 02:30:51;;;;;;;7.68;6.78;;;;;;;;;;5907678;28;20041;-77
2024/02/15 02:33:55;;;;;;;13.20;8.13;;;;;;;;;;5907747;28;20044;-77
2024/02/15 02:36:47;;;;;;;16.77;8.05;;;;;;;;;;5907405;28;20055;-78
2024/02/15 02:39:38;;;;;;;21.95;8.05;;;;;;;;;;5907571;28;20036;-77
2024/02/15 02:42:29;;;;;;;15.50;7.28;;;;;;;;;;5924233;28;20123;-77
2024/02/15 02:45:22;;;;;;;11.88;9.25;;;;;;;;;;5907489;28;20414;-77
2024/02/15 02:48:13;;;;;;;12.23;8.23;;;;;;;;;;5907751;28;20340;-77
2024/02/15 02:51:06;;;;;;;12.43;7.97;;;;;;;;;;5908736;28;20049;-77
2024/02/15 02:53:56;;;;;;;18.50;6.72;;;;;;;;;;5924357;28;20041;-77
2024/02/15 02:56:47;;;;;;;8.95;5.70;;;;;;;;;;5907450;28;20465;-78
2024/02/15 02:59:39;;;;;;;8.75;6.78;;;;;;;;;;5924090;28;20382;-77
2024/02/15 03:02:30;;;;;;;7.88;6.85;;;;;;;;;;5908637;28;20064;-77
2024/02/15 03:05:21;;;;;;;18.70;8.55;;;;;;;;;;5923520;28;20052;-77
2024/02/15 03:08:12;;;;;;;16.92;7.75;;;;;;;;;;5909714;28;20045;-77
2024/02/15 03:11:03;;;;;;;13.35;7.72;;;;;;;;;;5928588;28;20048;-78
2024/02/15 03:13:54;;;;;;;16.40;8.50;;;;;;;;;;5913600;28;20051;-77
2024/02/15 03:16:45;;;;;;;15.07;8.38;;;;;;;;;;5912958;28;20036;-77
2024/02/15 03:19:36;;;;;;;18.17;7.47;;;;;;;;;;5911894;28;20048;-77
2024/02/15 03:22:29;;;;;;;17.33;8.82;;;;;;;;;;5928332;28;20087;-77
2024/02/15 03:25:23;;;;;;;22.48;9.32;;;;;;;;;;5911611;28;20063;-77
2024/02/15 03:28:15;;;;;;;10.77;7.18;;;;;;;;;;5927950;28;20075;-77
2024/02/15 03:31:06;;;;;;;15.02;6.80;;;;;;;;;;5912705;28;20058;-77
2024/02/15 03:33:59;;;;;;;10.60;7.43;;;;;;;;;;5911717;28;20041;-77
2024/02/15 03:36:53;;;;;;;10.32;5.65;;;;;;;;;;5928376;28;20045;-77
2024/02/15 03:39:44;;;;;;;6.88;5.43;;;;;;;;;;5911390;28;20066;-77
2024/02/15 03:42:36;;;;;;;10.15;6.43;;;;;;;;;;5911162;28;20048;-78
2024/02/15 03:45:27;;;;;;;8.82;5.70;;;;;;;;;;5927935;28;20044;-77
2024/02/15 03:48:18;;;;;;;18.80;7.10;;;;;;;;;;5927776;28;20087;-77
2024/02/15 03:51:09;;;;;;;13.02;6.93;;;;;;;;;;5927910;28;20137;-77
2024/02/15 03:54:00;;;;;;;6.97;5.18;;;;;;;;;;5928110;28;20051;-77
2024/02/15 03:56:52;;;;;;;9.07;6.72;;;;;;;;;;5927971;28;20045;-77
2024/02/15 03:59:45;;;;;;;7.82;5.97;;;;;;;;;;5910670;28;20048;-77
2024/02/15 04:02:37;;;;;;;10.32;6.78;;;;;;;;;;5927117;28;20044;-77
2024/02/15 04:05:29;;;;;;;11.75;7.82;;;;;;;;;;5910625;28;20052;-77
2024/02/15 04:08:20;;;;;;;10.23;5.20;;;;;;;;;;5910504;28;20045;-77
2024/02/15 04:11:11;;;;;;;20.08;8.05;;;;;;;;;;5910496;28;20044;-77
2024/02/15 04:14:01;;;;;;;6.82;4.30;;;;;;;;;;5910249;28;20045;-77
2024/02/15 04:16:52;;;;;;;12.50;8.50;;;;;;;;;;5927530;28;20040;-77
2024/02/15 04:19:46;;;;;;;33.03;17.23;;;;;;;;;;5909403;28;20045;-78
2024/02/15 04:22:38;;;;;;;15.52;10.05;;;;;;;;;;5911857;28;20041;-77
2024/02/15 04:25:28;;;;;;;22.40;16.17;;;;;;;;;;5910111;28;20044;-77
2024/02/15 04:28:20;;;;;;;14.65;9.80;;;;;;;;;;5909963;28;20413;-77
2024/02/15 04:31:12;;;;;;;20.15;8.25;;;;;;;;;;5926783;28;20044;-77
2024/02/15 04:34:03;;;;;;;12.07;7.78;;;;;;;;;;5911435;28;20037;-77
2024/02/15 04:36:55;;;;;;;12.60;9.48;;;;;;;;;;5927353;28;20040;-77
2024/02/15 04:39:47;;;;;;;19.38;11.07;;;;;;;;;;5926600;28;20523;-77
2024/02/15 04:42:44;;;;;;;22.73;11.45;;;;;;;;;;5910097;28;20044;-77
2024/02/15 04:45:35;;;;;;;16.45;10.50;;;;;;;;;;5894387;28;20048;-77
2024/02/15 04:48:27;;;;;;;28.60;9.88;;;;;;;;;;5909757;28;20049;-77
2024/02/15 04:51:19;;;;;;;27.38;13.07;;;;;;;;;;5926331;28;20049;-77
2024/02/15 04:54:14;;;;;;;30.98;11.13;;;;;;;;;;5909657;28;20048;-77
2024/02/15 04:57:06;;;;;;;16.80;10.70;;;;;;;;;;5909736;28;20048;-77
2024/02/15 04:59:59;;;;;;;30.33;15.60;;;;;;;;;;5911423;28;20556;-77
2024/02/15 05:02:50;;;;;;;33.50;16.67;;;;;;;;;;5909663;28;20124;-77
2024/02/15 05:05:41;;;;;;;49.58;19.52;;;;;;;;;;5910526;28;20117;-77
2024/02/15 05:08:32;;;;;;;42.40;16.65;;;;;;;;;;5909080;28;20041;-77
2024/02/15 05:11:23;;;;;;;33.05;14.05;;;;;;;;;;5910554;28;20048;-77
2024/02/15 05:14:20;;;;;;;21.38;10.90;;;;;;;;;;5910580;28;20047;-77
2024/02/15 05:17:11;;;;;;;15.75;7.60;;;;;;;;;;5909151;28;20509;-77
2024/02/15 05:20:10;;;;;;;12.98;6.55;;;;;;;;;;5925741;28;20443;-77
2024/02/15 05:23:01;;;;;;;15.63;8.38;;;;;;;;;;5925855;28;20497;-77
2024/02/15 05:25:54;;;;;;;36.10;8.48;;;;;;;;;;5925956;28;20053;-77
2024/02/15 05:28:45;;;;;;;22.58;8.25;;;;;;;;;;5925435;28;20059;-77
2024/02/15 05:31:37;;;;;;;14.48;8.65;;;;;;;;;;5925498;28;20048;-77
2024/02/15 05:34:31;;;;;;;25.08;13.98;;;;;;;;;;5908655;28;20062;-77
2024/02/15 05:38:06;;;;;;;27.58;12.73;;;;;;;;;;5910038;28;20504;-77
2024/02/15 05:40:57;;;;;;;24.23;10.60;;;;;;;;;;5909766;28;20086;-77
2024/02/15 05:43:48;;;;;;;26.90;10.38;;;;;;;;;;5908384;28;20071;-77
2024/02/15 05:46:40;;;;;;;12.82;9.13;;;;;;;;;;5908477;28;20505;-77
2024/02/15 05:49:30;;;;;;;18.77;10.68;;;;;;;;;;5909829;28;20587;-77
2024/02/15 05:52:22;;;;;;;19.63;7.82;;;;;;;;;;5908219;28;20106;-77
2024/02/15 05:55:16;;;;;;;12.77;8.52;;;;;;;;;;5909678;28;20422;-77
2024/02/15 05:58:09;;;;;;;16.10;6.57;;;;;;;;;;5925050;28;20094;-77
2024/02/15 06:01:05;;;;;;;16.40;6.72;;;;;;;;;;5925250;28;20414;-77
2024/02/15 06:03:56;;;;;;;14.55;7.50;;;;;;;;;;5908511;28;20040;-77
2024/02/15 06:06:50;;;;;;;12.00;8.95;;;;;;;;;;5924587;28;20049;-77
2024/02/15 06:09:41;;;;;;;15.60;8.63;;;;;;;;;;5924292;28;20052;-77
2024/02/15 06:12:32;;;;;;;17.02;7.22;;;;;;;;;;5924795;28;20178;-77
2024/02/15 06:15:23;;;;;;;12.07;6.43;;;;;;;;;;5924585;28;20399;-77
2024/02/15 06:18:16;;;;;;;13.48;7.95;;;;;;;;;;5924293;28;20488;-77
2024/02/15 06:21:08;;;;;;;11.57;7.13;;;;;;;;;;5924288;28;20052;-77
2024/02/15 06:23:59;;;;;;;18.50;8.35;;;;;;;;;;5909725;28;20044;-77
2024/02/15 06:26:53;;;;;;;15.27;8.82;;;;;;;;;;5907660;28;20040;-77
2024/02/15 06:42:26;;;;;;;9.60;5.85;;;;;;;;;;5921191;28;20049;-77
2024/02/15 06:45:17;;;;;;;11.85;7.60;;;;;;;;;;5908770;28;20067;-77
2024/02/15 06:48:08;;;;;;;12.68;7.68;;;;;;;;;;5924004;28;20518;-77
2024/02/15 06:50:59;;;;;;;10.65;6.22;;;;;;;;;;5924619;28;20059;-77
2024/02/15 06:53:51;;;;;;;9.73;6.55;;;;;;;;;;5907447;28;20140;-77
2024/02/15 06:56:43;;;;;;;17.65;6.55;;;;;;;;;;5908618;28;20044;-78
2024/02/15 06:59:34;;;;;;;8.57;4.72;;;;;;;;;;5923637;28;20048;-77
2024/02/15 07:02:25;;;;;;;10.05;4.35;;;;;;;;;;5908481;28;20036;-77
2024/02/15 07:05:17;;;;;;;12.75;5.95;;;;;;;;;;5923843;28;20048;-77
2024/02/15 07:08:11;;;;;;;5.43;4.30;;;;;;;;;;5907262;28;20052;-77
2024/02/15 07:11:03;;;;;;;10.13;4.68;;;;;;;;;;5908460;28;20048;-77
2024/02/15 07:13:54;;;;;;;5.32;3.22;;;;;;;;;;5924229;28;20048;-78
2024/02/15 07:16:47;;;;;;;6.47;4.68;;;;;;;;;;5907244;28;20044;-78
2024/02/15 07:19:41;;;;;;;3.75;3.28;;;;;;;;;;5923996;28;20131;-78
2024/02/15 07:22:31;;;;;;;6.35;4.50;;;;;;;;;;5923557;28;20133;-77
2024/02/15 07:25:22;;;;;;;4.93;3.25;;;;;;;;;;5923438;28;20041;-77
2024/02/15 07:28:13;;;;;;;3.45;3.00;;;;;;;;;;5906937;28;20052;-77
2024/02/15 07:31:03;;;;;;;7.32;3.90;;;;;;;;;;5906849;28;20051;-77
2024/02/15 07:33:54;;;;;;;6.13;3.92;;;;;;;;;;5924372;28;20048;-77
2024/02/15 07:36:46;;;;;;;4.82;3.40;;;;;;;;;;5906966;28;20051;-77
2024/02/15 07:39:37;;;;;;;3.05;2.78;;;;;;;;;;5907039;28;20043;-77
2024/02/15 07:42:28;;;;;;;3.03;2.47;;;;;;;;;;5923410;28;20406;-78
2024/02/15 07:45:18;;;;;;;17.05;4.07;;;;;;;;;;5923545;28;20060;-77
2024/02/15 07:48:09;;;;;;;5.10;3.42;;;;;;;;;;5923692;28;20074;-77
2024/02/15 07:51:00;;;;;;;4.63;3.60;;;;;;;;;;5908661;28;20131;-77
2024/02/15 07:53:51;;;;;;;5.90;3.95;;;;;;;;;;5907026;28;20044;-78
2024/02/15 07:56:42;;;;;;;10.00;3.40;;;;;;;;;;5927643;28;20043;-77
2024/02/15 07:59:33;;;;;;;4.18;3.13;;;;;;;;;;5910863;28;20048;-78
2024/02/15 08:02:28;;;;;;;5.78;2.80;;;;;;;;;;5927423;28;20143;-77
2024/02/15 08:05:20;;;;;;;3.53;3.08;;;;;;;;;;5927337;28;20048;-77
2024/02/15 08:08:11;;;;;;;5.82;2.88;;;;;;;;;;5927252;28;20052;-78
2024/02/15 08:11:03;;;;;;;10.52;4.78;;;;;;;;;;5911943;28;20050;-78
2024/02/15 08:13:54;;;;;;;18.90;5.90;;;;;;;;;;5928076;28;20048;-78
2024/02/15 08:16:45;;;;;;;31.38;22.88;;;;;;;;;;5911985;28;20525;-78
2024/02/15 08:19:36;;;;;;;13.40;7.47;;;;;;;;;;5894006;28;20041;-78
2024/02/15 08:22:30;;;;;;;11.77;6.53;;;;;;;;;;5926971;28;20051;-78
2024/02/15 08:25:21;;;;;;;13.45;10.32;;;;;;;;;;5926749;28;20139;-78
2024/02/15 08:28:11;;;;;;;47.03;29.05;;;;;;;;;;5893817;28;20537;-78
2024/02/15 08:31:03;;;;;;;26.70;14.48;;;;;;;;;;5911593;28;20491;-78
2024/02/15 08:33:54;;;;;;;44.15;17.65;;;;;;;;;;5910579;28;20041;-78
2024/02/15 08:36:47;;;;;;;31.20;10.10;;;;;;;;;;5910209;28;20052;-78
2024/02/15 08:39:38;;;;;;;14.55;8.77;;;;;;;;;;5910208;28;20528;-78
2024/02/15 08:42:29;;;;;;;27.38;17.75;;;;;;;;;;5926610;28;20052;-78
2024/02/15 08:45:20;;;;;;;15.50;8.30;;;;;;;;;;5909995;28;20521;-78
2024/02/15 08:48:11;;;;;;;16.83;8.05;;;;;;;;;;5926383;28;20057;-78
2024/02/15 08:51:03;;;;;;;20.38;8.48;;;;;;;;;;5911042;28;20411;-78
2024/02/15 08:53:54;;;;;;;17.27;5.95;;;;;;;;;;5926734;28;20132;-78
2024/02/15 08:56:44;;;;;;;4.55;3.33;;;;;;;;;;5926358;28;20109;-78
2024/02/15 08:59:35;;;;;;;3.88;2.53;;;;;;;;;;5926365;28;20063;-78
2024/02/15 09:02:26;;;;;;;3.63;2.10;;;;;;;;;;5909609;28;20234;-78
2024/02/15 09:05:18;;;;;;;2.35;1.92;;;;;;;;;;5908870;28;20040;-78
2024/02/15 09:08:09;;;;;;;5.47;2.08;;;;;;;;;;5909323;28;20502;-78
2024/02/15 09:11:00;;;;;;;6.20;2.72;;;;;;;;;;5909684;28;20037;-78
2024/02/15 09:13:51;;;;;;;3.17;1.73;;;;;;;;;;5910893;28;20067;-78
2024/02/15 09:16:42;;;;;;;5.30;2.45;;;;;;;;;;5926055;28;20059;-78
2024/02/15 09:19:34;;;;;;;3.00;2.28;;;;;;;;;;5925823;28;20051;-78
2024/02/15 09:22:25;;;;;;;3.75;1.98;;;;;;;;;;5908922;28;20052;-78
2024/02/15 09:25:17;;;;;;;5.20;2.15;;;;;;;;;;5910029;28;20067;-78
2024/02/15 09:28:08;;;;;;;8.70;5.13;;;;;;;;;;5910037;28;20056;-78
2024/02/15 09:30:59;;;;;;;2.47;1.92;;;;;;;;;;5910640;28;20070;-78
2024/02/15 09:33:50;;;;;;;1.88;1.73;;;;;;;;;;5910601;28;20784;-78
2024/02/15 09:36:41;;;;;;;5.15;2.33;;;;;;;;;;5908835;28;20076;-78
2024/02/15 09:39:32;;;;;;;3.15;2.20;;;;;;;;;;5925453;28;20051;-78
2024/02/15 09:42:23;;;;;;;4.13;1.98;;;;;;;;;;5909739;28;20051;-78
2024/02/15 09:45:16;;;;;;;4.82;2.45;;;;;;;;;;5925318;28;20056;-78
2024/02/15 09:48:10;;;;;;;2.47;1.88;;;;;;;;;;5925135;28;20049;-78
2024/02/15 09:51:02;;;;;;;27.02;13.70;;;;;;;;;;5908613;28;20045;-78
2024/02/15 09:53:56;;;;;;;28.67;14.60;;;;;;;;;;5892274;28;20052;-78
2024/02/15 09:56:47;;;;;;;3.42;2.25;;;;;;;;;;5908199;28;20422;-78
2024/02/15 09:59:39;;;;;;;26.02;12.95;;;;;;;;;;5908019;28;20051;-78
2024/02/15 10:02:32;;;;;;;16.00;7.45;;;;;;;;;;5908049;28;20041;-78
2024/02/15 10:05:23;;;;;;;10.77;4.60;;;;;;;;;;5924367;28;20060;-78
2024/02/15 10:08:14;;;;;;;12.73;3.72;;;;;;;;;;5909236;28;20129;-78
2024/02/15 10:11:11;;;;;;;2.97;2.42;;;;;;;;;;5909185;28;20068;-78
2024/02/15 10:14:10;;;;;;;1.13;0.90;;;;;;;;;;5924406;28;20044;-79
2024/02/15 10:17:11;;;;;;;1.35;0.93;;;;;;;;;;5907347;28;20399;-78
2024/02/15 10:20:06;;;;;;;1.10;1.00;;;;;;;;;;5924354;28;20052;-78
2024/02/15 10:23:00;;;;;;;2.03;1.60;;;;;;;;;;5891751;28;20150;-79
2024/02/15 10:25:50;;;;;;;1.42;1.08;;;;;;;;;;5924530;28;20037;-79
2024/02/15 10:28:41;;;;;;;2.35;1.40;;;;;;;;;;5924284;28;20422;-79
2024/02/15 10:31:32;;;;;;;2.38;1.33;;;;;;;;;;5907477;28;20705;-78
2024/02/15 10:34:23;;;;;;;1.38;1.27;;;;;;;;;;5909008;28;20040;-78
2024/02/15 10:37:19;;;;;;;2.70;1.75;;;;;;;;;;5908824;28;20060;-78
2024/02/15 10:40:13;;;;;;;2.08;1.35;;;;;;;;;;5923982;28;20055;-78
2024/02/15 10:43:08;;;;;;;2.33;1.48;;;;;;;;;;5924016;28;20041;-78
2024/02/15 10:46:03;;;;;;;1.95;1.45;;;;;;;;;;5907783;28;20055;-79
2024/02/15 10:48:54;;;;;;;0.63;0.63;;;;;;;;;;5891715;28;20044;-79
2024/02/15 10:51:55;;;;;;;1.17;1.00;;;;;;;;;;5908691;28;20044;-79
2024/02/15 10:54:47;;;;;;;0.85;0.77;;;;;;;;;;5923650;28;20041;-79
2024/02/15 10:57:45;;;;;;;1.65;1.30;;;;;;;;;;5907547;28;20041;-79
2024/02/15 11:00:39;;;;;;;2.05;0.98;;;;;;;;;;5907690;28;20499;-80
2024/02/15 11:03:36;;;;;;;2.65;1.33;;;;;;;;;;5907420;28;20126;-79
2024/02/15 11:06:29;;;;;;;1.75;1.20;;;;;;;;;;5924126;28;20510;-78
2024/02/15 11:09:22;;;;;;;2.70;1.73;;;;;;;;;;5907522;28;20048;-79
2024/02/15 11:12:13;;;;;;;3.33;2.13;;;;;;;;;;5923582;28;20401;-78
2024/02/15 11:15:06;;;;;;;4.57;1.90;;;;;;;;;;5907276;28;20079;-78
2024/02/15 11:17:57;;;;;;;3.42;1.73;;;;;;;;;;5908914;28;20086;-79
2024/02/15 11:20:49;;;;;;;2.20;1.50;;;;;;;;;;5923889;28;20127;-79
2024/02/15 11:23:41;;;;;;;1.17;1.08;;;;;;;;;;5907265;28;20040;-79
2024/02/15 11:26:49;;;;;;;1.20;1.10;;;;;;;;;;5923848;28;20402;-79
2024/02/15 11:30:20;;;;;;;1.38;1.25;;;;;;;;;;5927087;28;20414;-79
2024/02/15 11:33:35;;;;;;;1.38;1.27;;;;;;;;;;5911439;28;20395;-79
2024/02/15 11:36:32;;;;;;;3.10;1.23;;;;;;;;;;5928044;28;20045;-79
2024/02/15 11:39:42;;;;;;;4.57;1.45;;;;;;;;;;5927953;28;20098;-79
2024/02/15 11:42:37;;;;;;;1.58;1.20;;;;;;;;;;5928114;28;20083;-79
2024/02/15 11:45:41;;;;;;;14.13;1.20;;;;;;;;;;5928150;28;20052;-81
2024/02/15 11:48:39;;;;;;;1.15;0.95;;;;;;;;;;5926530;28;20509;-79
2024/02/15 11:51:42;;;;;;;2.53;1.63;;;;;;;;;;5912112;28;20044;-79
2024/02/15 11:54:34;;;;;;;3.65;1.45;;;;;;;;;;5927072;28;20044;-79
2024/02/15 11:57:36;;;;;;;5.28;2.60;;;;;;;;;;5927952;28;20402;-80
2024/02/15 12:19:50;;;;;;;3.03;2.05;;;;;;;;;;5925369;28;20538;-79
2024/02/15 12:22:47;;;;;;;7.75;2.97;;;;;;;;;;5911215;28;20127;-79
2024/02/15 12:25:38;;;;;;;8.23;3.65;;;;;;;;;;5912113;28;20036;-80
2024/02/15 12:28:30;;;;;;;10.85;3.63;;;;;;;;;;5893633;28;20049;-78
2024/02/15 12:31:21;;;;;;;8.43;3.72;;;;;;;;;;5926924;28;20060;-78
2024/02/15 12:34:13;;;;;;;3.58;2.22;;;;;;;;;;5910229;28;20406;-78
2024/02/15 12:37:08;;;;;;;6.60;2.92;;;;;;;;;;5910291;28;20044;-78
2024/02/15 12:40:15;;;;;;;6.82;3.47;;;;;;;;;;5926418;28;20044;-78
2024/02/15 12:43:11;;;;;;;4.30;2.70;;;;;;;;;;5910996;28;20044;-78
2024/02/15 12:46:02;;;;;;;4.13;2.50;;;;;;;;;;5910498;28;20057;-78
2024/02/15 12:49:15;;;;;;;3.22;2.03;;;;;;;;;;5910570;28;20044;-79
2024/02/15 12:52:38;;;;;;;7.25;4.07;;;;;;;;;;5909617;28;20044;-78
2024/02/15 12:55:34;;;;;;;3.92;2.55;;;;;;;;;;5926192;28;20418;-79
2024/02/15 12:58:26;;;;;;;2.95;2.17;;;;;;;;;;5925927;28;20044;-79
2024/02/15 13:01:17;;;;;;;4.85;1.77;;;;;;;;;;5926334;28;20225;-79
2024/02/15 13:04:08;;;;;;;2.38;1.77;;;;;;;;;;5910939;28;20571;-78
2024/02/15 13:06:59;;;;;;;3.83;1.75;;;;;;;;;;5926684;28;20414;-79
2024/02/15 13:09:50;;;;;;;2.35;1.63;;;;;;;;;;5926446;28;20051;-78
2024/02/15 13:12:46;;;;;;;1.17;1.08;;;;;;;;;;5909108;28;20071;-78
2024/02/15 13:15:37;;;;;;;6.68;2.35;;;;;;;;;;5908925;28;20036;-78
2024/02/15 13:18:29;;;;;;;7.30;1.52;;;;;;;;;;5910532;28;20040;-78
2024/02/15 13:21:23;;;;;;;1.33;1.02;;;;;;;;;;5925743;28;20056;-78
2024/02/15 13:24:14;;;;;;;6.70;1.88;;;;;;;;;;5910131;28;20056;-78
2024/02/15 13:27:05;;;;;;;9.23;4.05;;;;;;;;;;5924428;28;20494;-79
2024/02/15 13:29:57;;;;;;;4.38;2.75;;;;;;;;;;5908117;28;20221;-78
2024/02/15 13:32:50;;;;;;;1.75;1.17;;;;;;;;;;5908888;28;20036;-78
2024/02/15 13:35:41;;;;;;;6.10;3.00;;;;;;;;;;5924960;28;20056;-78
2024/02/15 13:38:32;;;;;;;5.45;1.80;;;;;;;;;;5925509;28;20044;-78
2024/02/15 13:41:23;;;;;;;4.32;2.55;;;;;;;;;;5909958;28;20040;-78
2024/02/15 13:44:14;;;;;;;2.60;2.17;;;;;;;;;;5925358;28;20469;-78
2024/02/15 13:47:08;;;;;;;14.82;2.05;;;;;;;;;;5908471;28;20371;-78
2024/02/15 13:49:58;;;;;;;3.17;1.83;;;;;;;;;;5910336;28;20414;-78
2024/02/15 13:52:50;;;;;;;2.55;1.67;;;;;;;;;;5908673;28;20040;-78
2024/02/15 13:55:41;;;;;;;0.88;0.70;;;;;;;;;;5908313;28;20036;-78
2024/02/15 13:58:32;;;;;;;3.53;1.30;;;;;;;;;;5908234;28;20040;-78
2024/02/15 14:01:25;;;;;;;7.80;1.33;;;;;;;;;;5908426;28;20060;-78
2024/02/15 14:04:18;;;;;;;1.50;1.23;;;;;;;;;;5924759;28;20065;-78
2024/02/15 14:07:09;;;;;;;2.15;0.85;;;;;;;;;;5907919;28;20064;-78
2024/02/15 14:10:00;;;;;;;1.08;0.80;;;;;;;;;;5925354;28;20118;-78
2024/02/15 14:13:01;;;;;;;1.40;1.10;;;;;;;;;;5909408;28;20068;-78
2024/02/15 14:15:52;;;;;;;4.78;1.48;;;;;;;;;;5909614;28;20044;-78
2024/02/15 14:18:44;;;;;;;2.72;1.50;;;;;;;;;;5909248;28;20410;-78
2024/02/15 14:21:38;;;;;;;1.15;0.73;;;;;;;;;;5908037;28;20055;-78
2024/02/15 14:24:29;;;;;;;1.17;0.93;;;;;;;;;;5907739;28;20135;-78
2024/02/15 14:27:20;;;;;;;0.98;0.85;;;;;;;;;;5924318;28;20052;-78
2024/02/15 14:33:22;;;;;;;0.82;0.68;;;;;;;;;;5922025;28;20430;-78
2024/02/15 14:36:14;;;;;;;2.13;1.20;;;;;;;;;;5907657;28;20053;-78
2024/02/15 14:39:05;;;;;;;1.50;1.17;;;;;;;;;;5924265;28;20048;-78
2024/02/15 14:41:56;;;;;;;3.55;2.22;;;;;;;;;;5909651;28;20048;-78
2024/02/15 14:44:47;;;;;;;2.97;1.65;;;;;;;;;;5907841;28;20044;-78
2024/02/15 14:47:38;;;;;;;2.35;1.58;;;;;;;;;;5907464;28;20146;-78
2024/02/15 14:50:29;;;;;;;16.30;7.55;;;;;;;;;;5907614;28;20036;-78
2024/02/15 14:53:19;;;;;;;14.80;4.38;;;;;;;;;;5924133;28;20052;-78
2024/02/15 14:56:10;;;;;;;8.07;3.38;;;;;;;;;;5924156;28;20516;-78
2024/02/15 14:59:01;;;;;;;2.70;1.42;;;;;;;;;;5924091;28;20059;-78
2024/02/15 15:01:53;;;;;;;2.15;1.67;;;;;;;;;;5924642;28;20366;-78
2024/02/15 15:12:36;;;;;;;2.90;1.75;;;;;;;;;;5911641;28;20421;-78
2024/02/15 15:14:37;;;;;;;5.20;1.55;;;;;;;;;;5912932;28;20114;-78
2024/02/15 15:17:28;;;;;;;6.32;1.92;;;;;;;;;;5913397;28;20048;-78
2024/02/15 15:20:19;;;;;;;2.55;1.90;;;;;;;;;;5928660;28;20056;-78
2024/02/15 15:23:11;;;;;;;0.95;0.85;;;;;;;;;;5913294;28;20044;-78
2024/02/15 15:26:02;;;;;;;5.68;1.35;;;;;;;;;;5928677;28;20410;-78
2024/02/15 15:28:54;;;;;;;1.98;1.20;;;;;;;;;;5912043;28;20052;-78
2024/02/15 15:31:48;;;;;;;10.55;4.75;;;;;;;;;;5927940;28;20041;-78
2024/02/15 15:34:39;;;;;;;6.32;1.90;;;;;;;;;;5912996;28;20517;-78
2024/02/15 15:37:31;;;;;;;7.32;4.28;;;;;;;;;;5911540;28;20406;-78
2024/02/15 15:40:21;;;;;;;1.65;1.13;;;;;;;;;;5928048;28;20052;-77
2024/02/15 15:43:13;;;;;;;2.22;0.88;;;;;;;;;;5912777;28;20052;-77
2024/02/15 15:46:05;;;;;;;20.25;1.50;;;;;;;;;;5911482;28;20537;-78
2024/02/15 15:48:56;;;;;;;1.95;1.20;;;;;;;;;;5911537;28;20047;-78
2024/02/15 15:51:47;;;;;;;3.60;2.03;;;;;;;;;;5927535;28;20043;-77
2024/02/15 15:54:40;;;;;;;5.25;2.42;;;;;;;;;;5911108;28;20048;-78
2024/02/15 15:57:31;;;;;;;1.77;1.40;;;;;;;;;;5927618;28;20409;-78
2024/02/15 16:00:22;;;;;;;2.42;2.05;;;;;;;;;;5927487;28;20044;-78
2024/02/15 16:03:14;;;;;;;5.10;1.65;;;;;;;;;;5910847;28;20425;-78
2024/02/15 16:06:05;;;;;;;4.90;2.00;;;;;;;;;;5912298;28;20058;-78
2024/02/15 16:08:56;;;;;;;9.07;2.58;;;;;;;;;;5912396;28;20090;-78
2024/02/15 16:11:48;;;;;;;5.72;2.28;;;;;;;;;;5910725;28;20075;-78
2024/02/15 16:14:40;;;;;;;3.80;2.35;;;;;;;;;;5926556;28;20041;-77
2024/02/15 16:17:35;;;;;;;3.38;2.75;;;;;;;;;;5927304;28;20048;-77
2024/02/15 16:20:26;;;;;;;6.00;2.05;;;;;;;;;;5910734;28;20143;-78
2024/02/15 16:23:17;;;;;;;3.10;2.05;;;;;;;;;;5927140;28;20056;-78
2024/02/15 16:26:08;;;;;;;5.82;2.95;;;;;;;;;;5912019;28;20417;-78
2024/02/15 16:28:59;;;;;;;5.80;2.70;;;;;;;;;;5927486;28;20048;-77
2024/02/15 16:31:50;;;;;;;8.50;3.47;;;;;;;;;;5910442;28;20067;-77
2024/02/15 16:34:41;;;;;;;3.92;3.40;;;;;;;;;;5927068;28;20044;-77
2024/02/15 16:37:32;;;;;;;4.82;3.42;;;;;;;;;;5926823;28;20385;-77
2024/02/15 16:40:23;;;;;;;11.35;4.65;;;;;;;;;;5910122;28;20048;-77
2024/02/15 16:43:14;;;;;;;12.30;4.38;;;;;;;;;;5926881;28;20418;-77
2024/02/15 16:46:04;;;;;;;13.68;5.70;;;;;;;;;;5911655;28;20045;-77
2024/02/15 16:48:55;;;;;;;16.60;8.63;;;;;;;;;;5927103;28;20052;-77
2024/02/15 16:51:47;;;;;;;10.80;5.55;;;;;;;;;;5926504;28;20063;-77
2024/02/15 16:54:38;;;;;;;15.45;5.72;;;;;;;;;;5926631;28;20036;-78
2024/02/15 16:57:28;;;;;;;12.77;6.85;;;;;;;;;;5926481;28;20052;-77
2024/02/15 17:00:20;;;;;;;7.93;4.60;;;;;;;;;;5926615;28;20524;-77
2024/02/15 17:03:13;;;;;;;10.93;5.65;;;;;;;;;;5926471;28;20506;-77
2024/02/15 17:06:04;;;;;;;7.80;4.95;;;;;;;;;;5909723;28;20102;-77
2024/02/15 17:08:55;;;;;;;18.23;9.13;;;;;;;;;;5926478;28;20044;-77
2024/02/15 17:11:46;;;;;;;6.00;4.68;;;;;;;;;;5910748;28;20044;-77
2024/02/15 17:14:40;;;;;;;9.73;5.45;;;;;;;;;;5926001;28;20708;-77
2024/02/15 17:17:32;;;;;;;8.45;4.50;;;;;;;;;;5910752;28;20053;-77
2024/02/15 17:20:23;;;;;;;15.82;5.32;;;;;;;;;;5910434;28;20045;-77
2024/02/15 17:23:14;;;;;;;11.85;4.38;;;;;;;;;;5909344;28;20122;-77
2024/02/15 17:26:05;;;;;;;10.35;5.60;;;;;;;;;;5925821;28;20053;-77
2024/02/15 17:28:58;;;;;;;6.97;3.80;;;;;;;;;;5926177;28;20048;-77
2024/02/15 17:31:50;;;;;;;10.15;6.22;;;;;;;;;;5908751;28;20414;-77
2024/02/15 17:34:41;;;;;;;4.65;3.65;;;;;;;;;;5908784;28;20040;-77
2024/02/15 17:37:32;;;;;;;11.23;7.35;;;;;;;;;;5908735;28;20392;-77
2024/02/15 17:40:22;;;;;;;5.70;4.25;;;;;;;;;;5925514;28;20045;-77
2024/02/15 17:43:13;;;;;;;5.75;3.92;;;;;;;;;;5908426;28;20049;-77
2024/02/15 17:46:04;;;;;;;4.50;3.00;;;;;;;;;;5925576;28;20075;-77